Terminal Aerodrome Forecast
Issued by NWS New Orleans/Baton Rouge, LA

Home | Current Version | Previous Version | Text Only | Print | Product List | Glossary On
Versions: 1 2 3 4 5 6 7 8 9 10 11 12 13 14 15 16 17 18 19 20 21 22 23 24 25
257
FTUS44 KLIX 231735
TAFBTR
TAF
KBTR 231735Z 2318/2418 33006KT P6SM BKN020 BKN035
     FM240000 30004KT P6SM SCT090
     FM240600 VRB03KT P6SM SHRA BKN020 BKN090 PROB30 2406/2409 4SM
      TSRA OVC015CB
     FM241200 29007KT P6SM OVC010
     FM241700 30010KT P6SM SCT090=

USA.gov is the U.S. government's official web portal to all federal, state and local government web resources and services.